首页
METAR-TAF:

METAR-TAF

机场 :

匹兹堡国际机场

匹兹堡, 宾夕法尼亚州, 美国

纬度: 40-30-14N, 经度: 080-15-59W, 海拔: 366米

当前天气观测

该预报发布于27分钟前的17:51 UTC
风速7节,风向西
温度 26°C
湿度 70%
气压 1018 hPa
能見度: 16.1公里
散云层高于2900英尺
散云层高于15000英尺
阴天层高于22000英尺

METAR: KPIT 151751Z 26007KT 10SM SCT029 SCT150 OVC220 26/20 A3007 RMK AO2 SLP182 T02610200 10267 20183 58001

时间: 14:18 (18:18 UTC)

预报

该预报发布于46分钟前的17:32 UTC
预报有效从15日的 18点(UTC)到 16日的 24点(UTC)
风速6节,风向西南
能見度: 10公里
散云层高于3000英尺
多云层高于15000英尺
从 16日的 1200点(UTC)
风速3节,风向
能見度: 10公里
多云层高于8000英尺
从 16日的 1700点(UTC)
风速6节,风向
能見度: 10公里
多云层高于4000英尺, 积雨云.
小阵雨, 附近有雷暴

TAF: KPIT 151732Z 1518/1624 22006KT P6SM SCT030 BKN150 FM161200 18003KT P6SM BKN080 FM161700 18006KT P6SM -SHRA VCTS BKN040CB

超过4000个机场的气象观测和天气预报(METAR&TAF报告)。

可查询的气象台以黄色和红色小点在地图上表示。

将鼠标移到小点上方,可查看气象台名称。

然后点击查看天气观测和预报。

如需切换地图:点击带黑十字的绿色按钮放大地图;点击带横线的绿色按钮缩小地图;或者点击绿色箭头查看邻近地区的地图。


METAR-TAF: